createdAt,value
2023-04-15T00:02:00.947Z,93687.91
2023-04-15T00:04:28.817Z,93680.31
2023-04-15T00:06:56.638Z,93688.91
2023-04-15T00:09:24.203Z,93699.38
2023-04-15T00:11:51.682Z,93700.16
2023-04-15T00:14:18.847Z,93698.88
2023-04-15T00:16:46.574Z,93709.28
2023-04-15T00:19:13.765Z,93701.47
2023-04-15T00:21:41.507Z,93688.47
2023-04-15T00:24:08.724Z,93690.13
2023-04-15T00:26:36.354Z,93693.00
2023-04-15T00:29:03.610Z,93678.22
2023-04-15T00:31:32.051Z,93692.22
2023-04-15T00:33:59.900Z,93688.47
2023-04-15T00:36:27.859Z,93662.47
2023-04-15T00:38:55.075Z,93676.75
2023-04-15T00:41:23.264Z,93672.03
2023-04-15T00:43:53.170Z,93677.84
2023-04-15T00:46:22.190Z,93678.91
2023-04-15T00:48:50.712Z,93678.41
2023-04-15T00:51:18.188Z,93681.44
2023-04-15T00:53:45.390Z,93681.28
2023-04-15T00:56:14.233Z,93685.06
2023-04-15T00:58:42.235Z,93682.16
2023-04-15T01:01:10.380Z,93677.44
2023-04-15T01:03:37.982Z,93692.63
2023-04-15T01:06:05.880Z,93690.56
2023-04-15T01:08:33.284Z,93679.44
2023-04-15T01:11:03.846Z,93684.78
2023-04-15T01:13:31.591Z,93685.94
2023-04-15T01:15:59.308Z,93704.56
2023-04-15T01:18:27.454Z,93679.63
2023-04-15T01:20:55.119Z,93685.47
2023-04-15T01:23:24.699Z,93694.50
2023-04-15T01:25:53.673Z,93697.63
2023-04-15T01:28:21.532Z,93701.03
2023-04-15T01:30:49.377Z,93703.88
2023-04-15T01:33:17.047Z,93696.22
2023-04-15T01:35:47.394Z,93704.72
2023-04-15T01:38:15.626Z,93697.00
2023-04-15T01:40:45.122Z,93712.28
2023-04-15T01:43:15.613Z,93696.16
2023-04-15T01:45:43.413Z,93707.34
2023-04-15T01:48:10.726Z,93719.03
2023-04-15T01:50:38.838Z,93705.03
2023-04-15T01:53:06.148Z,93703.50
2023-04-15T01:55:33.682Z,93714.25
2023-04-15T01:58:01.487Z,93720.13
2023-04-15T02:00:29.287Z,93739.34
2023-04-15T02:02:56.634Z,93745.25
2023-04-15T02:05:26.649Z,93740.19
2023-04-15T02:07:54.021Z,93751.69
2023-04-15T02:10:21.950Z,93736.91
2023-04-15T02:12:49.275Z,93729.22
2023-04-15T02:15:16.898Z,93744.91
2023-04-15T02:17:46.162Z,93740.66
2023-04-15T02:20:16.035Z,93754.53
2023-04-15T02:22:43.320Z,93740.19
2023-04-15T02:25:11.251Z,93744.47
2023-04-15T02:27:38.643Z,93741.28
2023-04-15T02:30:07.621Z,93743.38
2023-04-15T02:32:35.702Z,93739.72
2023-04-15T02:35:07.978Z,93742.56
2023-04-15T02:37:41.787Z,93743.84
2023-04-15T02:40:14.138Z,93741.75
2023-04-15T02:42:42.096Z,93736.50
2023-04-15T02:45:13.197Z,93733.50
2023-04-15T02:47:41.879Z,93744.44
2023-04-15T02:50:12.882Z,93748.13
2023-04-15T02:52:42.856Z,93737.50
2023-04-15T02:55:10.898Z,93727.47
2023-04-15T02:57:39.402Z,93737.81
2023-04-15T03:00:11.782Z,93739.16
2023-04-15T03:02:43.236Z,93743.97
2023-04-15T03:05:15.195Z,93753.78
2023-04-15T03:07:52.270Z,93753.00
2023-04-15T03:10:20.980Z,93750.09
2023-04-15T03:12:48.644Z,93748.31
2023-04-15T03:15:21.663Z,93752.59
2023-04-15T03:17:52.107Z,93759.03
2023-04-15T03:20:19.959Z,93768.06
2023-04-15T03:22:48.613Z,93760.06
2023-04-15T03:25:16.590Z,93766.44
2023-04-15T03:27:44.553Z,93766.97
2023-04-15T03:30:13.548Z,93762.69
2023-04-15T03:32:41.564Z,93766.44
2023-04-15T03:35:09.900Z,93762.22
2023-04-15T03:37:37.110Z,93758.78
2023-04-15T03:40:07.158Z,93764.63
2023-04-15T03:42:34.354Z,93767.31
2023-04-15T03:45:02.166Z,93779.03
2023-04-15T03:47:29.424Z,93785.47
2023-04-15T03:49:56.926Z,93798.00
2023-04-15T03:52:24.200Z,93807.59
2023-04-15T03:54:51.775Z,93797.50
2023-04-15T03:57:18.936Z,93792.72
2023-04-15T03:59:49.721Z,93803.84
2023-04-15T04:02:17.515Z,93805.72
2023-04-15T04:04:47.486Z,93798.56
2023-04-15T04:07:18.919Z,93809.78
2023-04-15T04:09:47.656Z,93798.09
2023-04-15T04:12:22.172Z,93814.09
2023-04-15T04:14:49.834Z,93798.13
2023-04-15T04:17:17.080Z,93808.78
2023-04-15T04:19:44.637Z,93814.09
2023-04-15T04:22:12.318Z,93826.38
2023-04-15T04:24:42.558Z,93814.41
2023-04-15T04:27:09.799Z,93822.13
2023-04-15T04:29:38.599Z,93812.56
2023-04-15T04:32:06.148Z,93816.00
2023-04-15T04:34:33.712Z,93823.19
2023-04-15T04:37:00.934Z,93832.25
2023-04-15T04:39:28.385Z,93832.25
2023-04-15T04:41:57.458Z,93818.97
2023-04-15T04:44:25.410Z,93815.22
2023-04-15T04:46:53.702Z,93829.84
2023-04-15T04:49:21.354Z,93833.84
2023-04-15T04:51:52.608Z,93836.78
2023-04-15T04:57:15.346Z,93832.78
2023-04-15T04:59:46.809Z,93837.03
2023-04-15T05:02:15.793Z,93834.38
2023-04-15T05:04:43.379Z,93840.75
2023-04-15T05:07:13.043Z,93831.72
2023-04-15T05:09:43.591Z,93829.03
2023-04-15T05:12:15.165Z,93837.53
2023-04-15T05:14:44.647Z,93833.53
2023-04-15T05:17:12.649Z,93831.94
2023-04-15T05:19:45.749Z,93829.75
2023-04-15T05:22:13.299Z,93843.59
2023-04-15T05:24:43.514Z,93831.59
2023-04-15T05:27:12.060Z,93839.03
2023-04-15T05:29:39.670Z,93842.44
2023-04-15T05:32:07.250Z,93842.66
2023-04-15T05:34:34.728Z,93844.97
2023-04-15T05:37:03.063Z,93855.31
2023-04-15T05:39:34.899Z,93854.75
2023-04-15T05:42:07.127Z,93853.59
2023-04-15T05:44:35.608Z,93862.06
2023-04-15T05:47:08.858Z,93863.31
2023-04-15T05:49:37.008Z,93858.13
2023-04-15T05:52:07.949Z,93844.69
2023-04-15T05:54:38.935Z,93866.41
2023-04-15T05:57:06.416Z,93862.03
2023-04-15T05:59:33.945Z,93855.81
2023-04-15T06:02:01.435Z,93861.47
2023-04-15T06:04:29.150Z,93856.25
2023-04-15T06:06:59.247Z,93867.09
2023-04-15T06:09:27.287Z,93870.69
2023-04-15T06:11:54.977Z,93867.03
2023-04-15T06:14:23.564Z,93866.47
2023-04-15T06:16:52.581Z,93864.50
2023-04-15T06:19:20.639Z,93851.59
2023-04-15T06:21:50.086Z,93860.50
2023-04-15T06:24:18.851Z,93859.84
2023-04-15T06:26:49.069Z,93861.00
2023-04-15T06:29:20.352Z,93864.31
2023-04-15T06:31:49.646Z,93870.59
2023-04-15T06:34:17.257Z,93856.81
2023-04-15T06:36:44.517Z,93851.53
2023-04-15T06:39:12.575Z,93858.22
2023-04-15T06:41:40.467Z,93864.66
2023-04-15T06:44:08.095Z,93847.75
2023-04-15T06:46:35.816Z,93857.50
2023-04-15T06:49:04.069Z,93877.06
2023-04-15T06:51:32.166Z,93875.38
2023-04-15T06:54:00.702Z,93879.56
2023-04-15T06:56:28.351Z,93884.34
2023-04-15T06:58:58.123Z,93886.56
2023-04-15T07:01:25.582Z,93887.16
2023-04-15T07:03:53.798Z,93883.72
2023-04-15T07:06:22.558Z,93893.25
2023-04-15T07:08:52.283Z,93880.13
2023-04-15T07:11:21.311Z,93895.91
2023-04-15T07:13:50.236Z,93891.91
2023-04-15T07:16:22.803Z,93901.06
2023-04-15T07:18:51.274Z,93886.94
2023-04-15T07:21:18.641Z,93905.41
2023-04-15T07:23:46.837Z,93897.78
2023-04-15T07:26:15.949Z,93898.09
2023-04-15T07:28:49.835Z,93901.41
2023-04-15T07:31:20.196Z,93899.53
2023-04-15T07:33:48.228Z,93895.09
2023-04-15T07:36:15.639Z,93887.91
2023-04-15T07:38:43.380Z,93901.63
2023-04-15T07:41:10.857Z,93886.94
2023-04-15T07:43:38.715Z,93892.25
2023-04-15T07:46:06.138Z,93902.81
2023-04-15T07:48:34.938Z,93885.94
2023-04-15T07:51:03.801Z,93892.59
2023-04-15T07:53:31.555Z,93901.94
2023-04-15T07:55:59.247Z,93891.31
2023-04-15T10:34:31.524Z,93883.09
2023-04-15T10:37:03.863Z,93870.16
2023-04-15T10:39:37.603Z,93878.53
2023-04-15T10:42:09.703Z,93882.69
2023-04-15T10:44:43.250Z,93878.75
2023-04-15T10:47:16.117Z,93874.84
2023-04-15T10:49:47.009Z,93864.84
2023-04-15T10:52:16.819Z,93868.81
2023-04-15T10:54:46.998Z,93878.03
2023-04-15T10:57:22.049Z,93875.25
2023-04-15T10:59:58.937Z,93876.28
2023-04-15T11:03:05.806Z,93868.38
2023-04-15T11:05:42.187Z,93865.25
2023-04-15T11:08:16.808Z,93864.13
2023-04-15T11:10:44.134Z,93875.75
2023-04-15T11:13:11.658Z,93868.88
2023-04-15T11:15:45.131Z,93869.78
2023-04-15T11:18:23.791Z,93876.34
2023-04-15T11:20:59.629Z,93872.16
2023-04-15T11:23:48.889Z,93886.69
2023-04-15T11:26:16.471Z,93883.41
2023-04-15T11:28:45.765Z,93888.06
2023-04-15T11:31:14.693Z,93884.16
2023-04-15T11:34:00.335Z,93877.78
2023-04-15T11:36:32.343Z,93896.38
2023-04-15T11:39:00.687Z,93879.84
2023-04-15T11:41:28.869Z,93893.78
2023-04-15T11:43:56.585Z,93894.09
2023-04-15T11:46:30.993Z,93888.72
2023-04-15T11:48:58.652Z,93889.94
2023-04-15T11:51:26.248Z,93874.63
2023-04-15T11:53:55.658Z,93881.81
2023-04-15T11:56:26.811Z,93890.78
2023-04-15T11:58:59.646Z,93883.38
2023-04-15T12:01:40.037Z,93890.97
2023-04-15T12:04:17.807Z,93879.16
2023-04-15T12:06:45.956Z,93885.63
2023-04-15T12:09:15.548Z,93880.41
2023-04-15T12:11:50.322Z,93883.06
2023-04-15T12:14:28.671Z,93889.38
2023-04-15T12:17:00.572Z,93870.44
2023-04-15T12:19:38.929Z,93879.84
2023-04-15T12:22:10.594Z,93874.53
2023-04-15T12:24:39.578Z,93869.03
2023-04-15T12:27:14.655Z,93873.59
2023-04-15T12:29:43.355Z,93877.09
2023-04-15T12:32:13.615Z,93865.41
2023-04-15T12:34:50.026Z,93877.13
2023-04-15T12:37:17.907Z,93870.22
2023-04-15T12:39:49.174Z,93874.25
2023-04-15T12:42:17.703Z,93861.88
2023-04-15T12:44:45.630Z,93863.97
2023-04-15T12:47:13.593Z,93865.59
2023-04-15T12:49:41.517Z,93872.03
2023-04-15T12:52:09.181Z,93869.53
2023-04-15T12:54:36.778Z,93885.13
2023-04-15T12:57:06.877Z,93894.16
2023-04-15T12:59:35.816Z,93882.09
2023-04-15T13:02:04.096Z,93907.53
2023-04-15T13:04:32.209Z,93910.44
2023-04-15T13:06:59.743Z,93915.31
2023-04-15T13:09:27.312Z,93915.03
2023-04-15T13:11:54.781Z,93926.50
2023-04-15T13:14:22.563Z,93934.28
2023-04-15T13:16:49.863Z,93944.66
2023-04-15T13:19:17.409Z,93922.28
2023-04-15T13:21:44.704Z,93928.50
2023-04-15T13:24:12.266Z,93936.75
2023-04-15T13:26:39.543Z,93927.38
2023-04-15T13:29:07.462Z,93940.78
2023-04-15T13:31:34.824Z,93965.09
2023-04-15T13:38:44.745Z,93964.63
2023-04-15T13:41:12.311Z,93959.75
2023-04-15T13:43:39.532Z,93948.66
2023-04-15T13:46:07.198Z,93976.75
2023-04-15T13:48:34.464Z,93980.63
2023-04-15T13:51:01.954Z,93982.94
2023-04-15T13:53:38.530Z,93977.47
2023-04-15T13:56:08.565Z,93983.66
2023-04-15T13:58:37.005Z,93984.78
2023-04-15T14:01:06.230Z,93980.97
2023-04-15T14:03:36.232Z,93990.97
2023-04-15T14:06:05.490Z,93979.41
2023-04-15T14:08:32.928Z,93981.13
2023-04-15T14:11:00.763Z,93997.50
2023-04-15T14:13:28.336Z,94001.16
2023-04-15T14:15:57.407Z,94003.50
2023-04-15T14:18:24.685Z,94014.00
2023-04-15T14:20:52.237Z,94019.56
2023-04-15T14:23:19.807Z,94019.38
2023-04-15T14:25:48.308Z,94017.78
2023-04-15T14:28:16.020Z,94016.84
2023-04-15T14:30:44.027Z,94013.03
2023-04-15T14:33:11.450Z,94021.59
2023-04-15T14:35:39.279Z,94026.22
2023-04-15T14:38:11.025Z,94023.69
2023-04-15T14:40:39.047Z,94022.72
2023-04-15T14:43:06.217Z,94024.63
2023-04-15T14:45:34.110Z,94017.25
2023-04-15T14:48:01.705Z,94008.72
2023-04-15T14:50:29.486Z,94008.88
2023-04-15T14:52:59.508Z,93997.16
2023-04-15T14:55:27.118Z,94008.03
2023-04-15T14:57:55.240Z,94000.19
2023-04-15T15:00:22.967Z,94004.78
2023-04-15T15:02:52.321Z,94010.31
2023-04-15T15:05:20.211Z,94007.94
2023-04-15T15:07:48.016Z,94000.56
2023-04-15T15:10:15.714Z,94010.81
2023-04-15T15:12:42.944Z,94008.34
2023-04-15T15:15:27.988Z,94012.44
2023-04-15T15:17:55.791Z,94016.75
2023-04-15T15:20:24.644Z,94018.19
2023-04-15T15:22:52.162Z,94024.78
2023-04-15T15:25:19.960Z,94022.50
2023-04-15T15:27:47.416Z,94012.53
2023-04-15T15:30:15.013Z,94014.25
2023-04-15T15:32:43.036Z,94027.59
2023-04-15T15:35:12.962Z,94022.13
2023-04-15T15:37:41.158Z,94027.13
2023-04-15T15:40:10.622Z,94028.31
2023-04-15T15:42:37.980Z,94034.88
2023-04-15T15:45:06.212Z,94046.75
2023-04-15T15:47:33.720Z,94046.25
2023-04-15T15:50:02.717Z,94043.78
2023-04-15T15:52:31.608Z,94044.25
2023-04-15T15:54:59.253Z,94053.97
2023-04-15T15:57:26.484Z,94057.97
2023-04-15T16:00:04.800Z,94050.63
2023-04-15T16:03:05.235Z,94052.44
2023-04-15T16:05:27.228Z,94063.28
2023-04-15T16:07:54.444Z,94071.47
2023-04-15T16:10:21.992Z,94070.56
2023-04-15T16:12:49.709Z,94080.56
2023-04-15T16:15:17.290Z,94080.72
2023-04-15T16:17:44.539Z,94072.63
2023-04-15T16:20:12.056Z,94085.88
2023-04-15T16:22:39.649Z,94083.00
2023-04-15T16:25:09.978Z,94080.84
2023-04-15T16:27:54.065Z,94085.84
2023-04-15T16:30:24.767Z,94098.25
2023-04-15T16:32:52.053Z,94106.66
2023-04-15T16:35:20.178Z,94104.38
2023-04-15T16:37:47.418Z,94096.50
2023-04-15T16:40:15.471Z,94109.31
2023-04-15T16:42:43.833Z,94096.63
2023-04-15T16:45:11.797Z,94128.59
2023-04-15T16:47:39.136Z,94107.84
2023-04-15T16:50:07.410Z,94127.72
2023-04-15T16:52:34.850Z,94118.38
2023-04-15T16:55:02.577Z,94135.34
2023-04-15T16:58:00.377Z,94148.00
2023-04-15T17:00:17.644Z,94150.25
2023-04-15T17:02:45.166Z,94138.66
2023-04-15T17:05:13.041Z,94156.50
2023-04-15T17:07:40.331Z,94159.97
2023-04-15T17:10:09.571Z,94169.03
2023-04-15T17:12:39.074Z,94170.16
2023-04-15T17:15:09.059Z,94179.53
2023-04-15T17:17:37.902Z,94179.94
2023-04-15T17:20:06.253Z,94191.75
2023-04-15T17:22:33.811Z,94189.41
2023-04-15T17:25:01.525Z,94200.38
2023-04-15T17:27:30.214Z,94198.53
2023-04-15T17:29:57.967Z,94198.88
2023-04-15T17:32:26.567Z,94197.03
2023-04-15T17:34:54.160Z,94199.97
2023-04-15T17:37:21.438Z,94200.81
2023-04-15T17:39:49.050Z,94212.03
2023-04-15T17:42:17.096Z,94215.06
2023-04-15T17:44:45.825Z,94211.59
2023-04-15T17:47:13.212Z,94222.28
2023-04-15T17:49:41.262Z,94230.88
2023-04-15T17:52:09.904Z,94242.63
2023-04-15T17:54:37.732Z,94234.34
2023-04-15T17:57:05.511Z,94225.84
2023-04-15T17:59:34.321Z,94235.69
2023-04-15T18:02:01.824Z,94246.13
2023-04-15T18:04:29.995Z,94238.13
2023-04-15T18:06:58.294Z,94249.34
2023-04-15T18:09:26.030Z,94255.44
2023-04-15T18:11:53.523Z,94259.47
2023-04-15T18:14:33.698Z,94258.44
2023-04-15T18:17:05.421Z,94264.81
2023-04-15T18:19:33.132Z,94271.25
2023-04-15T18:22:00.722Z,94271.53
2023-04-15T18:24:30.697Z,94280.63
2023-04-15T18:26:59.269Z,94286.47
2023-04-15T18:29:27.476Z,94283.78
2023-04-15T18:31:55.215Z,94284.63
2023-04-15T18:34:23.342Z,94289.41
2023-04-15T18:36:50.877Z,94283.81
2023-04-15T18:39:19.523Z,94277.66
2023-04-15T18:41:47.228Z,94276.59
2023-04-15T18:44:15.594Z,94277.41
2023-04-15T18:46:43.253Z,94284.09
2023-04-15T18:49:12.658Z,94289.44
2023-04-15T18:51:40.094Z,94287.56
2023-04-15T18:54:07.922Z,94295.59
2023-04-15T18:56:35.545Z,94297.78
2023-04-15T18:59:28.187Z,94302.31
2023-04-15T19:01:51.746Z,94306.34
2023-04-15T19:04:19.811Z,94308.75
2023-04-15T19:06:47.834Z,94313.56
2023-04-15T19:09:16.428Z,94314.94
2023-04-15T19:11:47.793Z,94321.59
2023-04-15T19:14:15.692Z,94318.91
2023-04-15T19:16:43.431Z,94317.88
2023-04-15T19:19:14.734Z,94331.75
2023-04-15T19:21:42.212Z,94332.56
2023-04-15T19:24:10.376Z,94339.78
2023-04-15T19:26:37.924Z,94336.03
2023-04-15T19:29:05.883Z,94343.00
2023-04-15T19:31:33.355Z,94346.19
2023-04-15T19:34:01.003Z,94355.78
2023-04-15T19:36:28.729Z,94362.47
2023-04-15T19:38:56.685Z,94350.72
2023-04-15T19:41:23.873Z,94353.13
2023-04-15T19:43:51.528Z,94359.75
2023-04-15T19:46:19.229Z,94360.00
2023-04-15T19:48:46.983Z,94351.19
2023-04-15T19:51:14.333Z,94369.88
2023-04-15T19:53:42.142Z,94372.00
2023-04-15T19:56:09.430Z,94374.13
2023-04-15T19:58:37.632Z,94361.06
2023-04-15T20:01:04.843Z,94370.69
2023-04-15T20:03:32.841Z,94373.38
2023-04-15T20:06:00.269Z,94381.38
2023-04-15T20:08:27.943Z,94375.75
2023-04-15T20:10:55.245Z,94385.13
2023-04-15T20:13:22.822Z,94373.06
2023-04-15T20:15:50.208Z,94389.69
2023-04-15T20:18:17.867Z,94387.78
2023-04-15T20:20:45.264Z,94392.28
2023-04-15T20:23:12.863Z,94387.72
2023-04-15T20:25:40.078Z,94388.25
2023-04-15T20:28:10.613Z,94394.91
2023-04-15T20:30:39.696Z,94384.75
2023-04-15T20:33:08.224Z,94385.00
2023-04-15T20:35:35.633Z,94404.22
2023-04-15T20:38:04.614Z,94400.72
2023-04-15T20:40:33.816Z,94407.38
2023-04-15T20:43:01.467Z,94409.53
2023-04-15T20:45:28.705Z,94412.47
2023-04-15T20:47:56.421Z,94401.22
2023-04-15T20:50:23.626Z,94416.94
2023-04-15T20:52:51.342Z,94418.00
2023-04-15T20:55:18.761Z,94415.81
2023-04-15T20:57:48.709Z,94406.19
2023-04-15T21:00:16.048Z,94422.72
2023-04-15T21:02:43.781Z,94428.34
2023-04-15T21:05:11.573Z,94431.25
2023-04-15T21:07:39.136Z,94436.00
2023-04-15T21:10:06.811Z,94433.34
2023-04-15T21:12:34.394Z,94445.03
2023-04-15T21:15:01.908Z,94447.94
2023-04-15T21:17:29.622Z,94431.84
2023-04-15T21:19:56.890Z,94446.16
2023-04-15T21:22:24.469Z,94440.44
2023-04-15T21:24:51.709Z,94446.72
2023-04-15T21:27:19.267Z,94443.47
2023-04-15T21:29:46.491Z,94447.63
2023-04-15T21:32:14.087Z,94457.78
2023-04-15T21:34:41.354Z,94444.63
2023-04-15T21:37:08.952Z,94459.81
2023-04-15T21:39:36.138Z,94466.72
2023-04-15T21:42:03.794Z,94462.03
2023-04-15T21:44:31.112Z,94479.88
2023-04-15T21:46:58.748Z,94487.91
2023-04-15T21:49:26.078Z,94484.25
2023-04-15T21:51:53.543Z,94485.19
2023-04-15T21:54:20.854Z,94481.88
2023-04-15T21:56:49.897Z,94480.16
2023-04-15T21:59:17.129Z,94485.94
2023-04-15T22:01:44.751Z,94494.25
2023-04-15T22:04:12.185Z,94504.31
2023-04-15T22:06:39.798Z,94512.72
2023-04-15T22:09:06.947Z,94508.22
2023-04-15T22:11:34.500Z,94513.22
2023-04-15T22:14:01.792Z,94518.03
2023-04-15T22:16:29.634Z,94520.09
2023-04-15T22:18:56.880Z,94524.34
2023-04-15T22:21:24.477Z,94528.84
2023-04-15T22:24:39.058Z,94525.41
2023-04-15T22:26:44.453Z,94529.59
2023-04-15T22:29:11.817Z,94522.34
2023-04-15T22:31:39.299Z,94546.00
2023-04-15T22:34:06.702Z,94549.47
2023-04-15T22:36:34.340Z,94547.22
2023-04-15T22:39:01.706Z,94545.28
2023-04-15T22:41:29.221Z,94547.25
2023-04-15T22:43:56.505Z,94551.38
2023-04-15T22:46:24.084Z,94569.69
2023-04-15T22:48:51.342Z,94559.94
2023-04-15T22:51:23.139Z,94576.28
2023-04-15T22:53:50.851Z,94577.59
2023-04-15T22:56:20.925Z,94582.13
2023-04-15T22:58:49.053Z,94578.66
2023-04-15T23:01:17.965Z,94585.22
2023-04-15T23:03:56.102Z,94585.50
2023-04-15T23:06:27.416Z,94580.78
2023-04-15T23:08:54.709Z,94587.63
2023-04-15T23:11:22.320Z,94580.94
2023-04-15T23:13:50.869Z,94577.75
2023-04-15T23:16:18.511Z,94584.50
2023-04-15T23:18:45.719Z,94596.63
2023-04-15T23:21:13.335Z,94595.69
2023-04-15T23:23:40.599Z,94583.13
2023-04-15T23:26:08.083Z,94593.75
2023-04-15T23:28:35.239Z,94586.94
2023-04-15T23:31:02.840Z,94594.47
2023-04-15T23:33:30.034Z,94591.84
2023-04-15T23:35:57.595Z,94592.97
2023-04-15T23:38:24.706Z,94592.63
2023-04-15T23:40:52.484Z,94603.00
2023-04-15T23:43:19.712Z,94604.06
2023-04-15T23:45:47.189Z,94593.56
2023-04-15T23:48:14.355Z,94588.63
2023-04-15T23:50:43.441Z,94596.44
2023-04-15T23:53:10.906Z,94601.50
2023-04-15T23:55:38.411Z,94606.03
2023-04-15T23:58:05.611Z,94611.38
